createdAt,value
2018-06-10T00:00:12.709Z,17.20
2018-06-10T00:01:18.181Z,17.20
2018-06-10T00:02:23.627Z,17.20
2018-06-10T00:03:29.113Z,17.20
2018-06-10T00:04:34.630Z,17.20
2018-06-10T00:05:40.086Z,17.20
2018-06-10T00:06:45.773Z,17.20
2018-06-10T00:07:51.182Z,17.20
2018-06-10T00:08:56.602Z,17.10
2018-06-10T00:10:02.071Z,17.10
2018-06-10T00:11:07.502Z,17.10
2018-06-10T00:12:13.172Z,17.20
2018-06-10T00:13:18.596Z,17.20
2018-06-10T00:14:24.006Z,17.20
2018-06-10T00:15:29.424Z,17.20
2018-06-10T00:17:39.999Z,17.20
2018-06-10T00:18:45.431Z,17.10
2018-06-10T00:19:50.845Z,17.10
2018-06-10T00:20:56.286Z,17.10
2018-06-10T00:22:01.733Z,17.10
2018-06-10T00:23:07.725Z,17.10
2018-06-10T00:24:13.180Z,17.00
2018-06-10T00:25:18.599Z,17.10
2018-06-10T00:26:24.004Z,17.10
2018-06-10T00:27:29.487Z,17.00
2018-06-10T00:28:40.211Z,17.10
2018-06-10T00:29:45.746Z,17.10
2018-06-10T00:30:51.207Z,17.00
2018-06-10T00:31:56.653Z,17.00
2018-06-10T00:33:02.077Z,17.00
2018-06-10T00:34:07.617Z,17.00
2018-06-10T00:35:13.110Z,17.00
2018-06-10T00:36:18.619Z,17.00
2018-06-10T00:37:24.086Z,17.00
2018-06-10T00:38:30.021Z,17.00
2018-06-10T00:39:35.573Z,17.00
2018-06-10T00:40:41.069Z,17.00
2018-06-10T00:41:46.697Z,17.00
2018-06-10T00:42:52.107Z,17.00
2018-06-10T00:43:57.547Z,17.00
2018-06-10T00:45:03.066Z,17.00
2018-06-10T00:46:08.520Z,16.90
2018-06-10T00:47:14.106Z,16.90
2018-06-10T00:48:19.540Z,17.00
2018-06-10T00:49:24.982Z,16.90
2018-06-10T00:50:30.393Z,16.90
2018-06-10T00:51:35.991Z,17.00
2018-06-10T00:52:41.473Z,16.90
2018-06-10T00:53:46.971Z,16.90
2018-06-10T00:54:52.425Z,16.90
2018-06-10T00:55:57.874Z,16.90
2018-06-10T00:57:03.319Z,16.90
2018-06-10T00:58:08.796Z,16.90
2018-06-10T00:59:14.208Z,17.00
2018-06-10T01:00:19.686Z,16.90
2018-06-10T01:01:25.134Z,17.00
2018-06-10T01:02:30.669Z,17.00
2018-06-10T01:03:36.542Z,17.00
2018-06-10T01:04:41.957Z,17.00
2018-06-10T01:05:47.405Z,17.00
2018-06-10T01:06:52.821Z,17.00
2018-06-10T01:07:58.284Z,17.00
2018-06-10T01:09:03.859Z,17.00
2018-06-10T01:10:09.417Z,17.00
2018-06-10T01:11:14.817Z,17.00
2018-06-10T01:12:20.305Z,17.00
2018-06-10T01:13:26.170Z,17.00
2018-06-10T01:14:31.602Z,17.00
2018-06-10T01:15:37.237Z,17.00
2018-06-10T01:16:42.676Z,17.00
2018-06-10T01:17:48.207Z,17.00
2018-06-10T01:18:53.753Z,17.00
2018-06-10T01:19:59.249Z,17.00
2018-06-10T01:21:04.920Z,17.00
2018-06-10T01:22:10.670Z,17.00
2018-06-10T01:23:16.193Z,17.00
2018-06-10T01:24:21.642Z,17.00
2018-06-10T01:26:37.525Z,16.90
2018-06-10T01:27:42.979Z,16.80
2018-06-10T01:28:48.365Z,16.80
2018-06-10T01:29:53.790Z,16.70
2018-06-10T01:31:00.022Z,16.70
2018-06-10T01:33:10.909Z,16.70
2018-06-10T01:34:16.321Z,16.70
2018-06-10T01:35:21.773Z,16.70
2018-06-10T01:36:27.193Z,16.70
2018-06-10T01:37:32.594Z,16.70
2018-06-10T01:38:38.118Z,16.70
2018-06-10T01:39:43.566Z,16.70
2018-06-10T01:40:49.022Z,16.70
2018-06-10T01:41:54.453Z,16.80
2018-06-10T01:43:00.066Z,16.70
2018-06-10T01:44:05.534Z,16.70
2018-06-10T01:45:11.101Z,16.70
2018-06-10T01:46:16.529Z,16.80
2018-06-10T01:47:22.032Z,16.80
2018-06-10T01:48:27.478Z,16.80
2018-06-10T01:49:32.906Z,16.80
2018-06-10T01:50:38.604Z,16.70
2018-06-10T01:51:44.049Z,16.70
2018-06-10T01:52:49.508Z,16.70
2018-06-10T01:53:54.941Z,16.70
2018-06-10T01:55:00.513Z,16.70
2018-06-10T01:56:06.086Z,16.70
2018-06-10T01:57:11.534Z,16.70
2018-06-10T01:58:16.943Z,16.70
2018-06-10T01:59:22.375Z,16.70
2018-06-10T02:00:27.980Z,16.70
2018-06-10T02:01:33.859Z,16.70
2018-06-10T02:02:39.268Z,16.70
2018-06-10T02:03:44.680Z,16.60
2018-06-10T02:04:50.133Z,16.60
2018-06-10T02:05:55.602Z,16.60
2018-06-10T02:07:01.352Z,16.50
2018-06-10T02:08:06.877Z,16.50
2018-06-10T02:09:12.291Z,16.60
2018-06-10T02:10:17.705Z,16.50
2018-06-10T02:11:23.146Z,16.50
2018-06-10T02:12:28.605Z,16.50
2018-06-10T02:13:34.022Z,16.50
2018-06-10T02:14:39.449Z,16.50
2018-06-10T02:15:44.924Z,16.40
2018-06-10T02:16:50.362Z,16.50
2018-06-10T02:17:55.790Z,16.50
2018-06-10T02:19:01.256Z,16.50
2018-06-10T02:20:07.233Z,16.40
2018-06-10T02:21:12.670Z,16.40
2018-06-10T02:22:18.074Z,16.40
2018-06-10T02:23:23.513Z,16.40
2018-06-10T02:24:29.076Z,16.40
2018-06-10T02:25:34.745Z,16.40
2018-06-10T02:26:40.141Z,16.40
2018-06-10T02:27:45.572Z,16.40
2018-06-10T02:28:51.018Z,16.40
2018-06-10T02:29:56.440Z,16.50
2018-06-10T02:31:01.908Z,16.50
2018-06-10T02:32:07.344Z,16.50
2018-06-10T02:33:12.745Z,16.50
2018-06-10T02:34:18.160Z,16.50
2018-06-10T02:35:23.573Z,16.50
2018-06-10T02:36:29.012Z,16.60
2018-06-10T02:37:34.426Z,16.50
2018-06-10T02:38:39.844Z,16.60
2018-06-10T02:39:45.245Z,16.60
2018-06-10T02:40:50.680Z,16.60
2018-06-10T02:41:56.126Z,16.60
2018-06-10T02:43:01.630Z,16.60
2018-06-10T02:44:07.053Z,16.60
2018-06-10T02:45:12.444Z,16.60
2018-06-10T02:46:17.855Z,16.60
2018-06-10T02:47:23.384Z,16.60
2018-06-10T02:48:28.797Z,16.60
2018-06-10T02:49:34.217Z,16.60
2018-06-10T02:50:39.696Z,16.60
2018-06-10T02:51:45.165Z,16.70
2018-06-10T02:52:50.603Z,16.70
2018-06-10T02:53:56.067Z,16.70
2018-06-10T02:55:01.488Z,16.70
2018-06-10T02:56:07.028Z,16.70
2018-06-10T02:57:12.437Z,16.70
2018-06-10T02:58:17.829Z,16.70
2018-06-10T02:59:23.270Z,16.70
2018-06-10T03:00:28.703Z,16.70
2018-06-10T03:01:34.117Z,16.70
2018-06-10T03:02:39.529Z,16.70
2018-06-10T03:03:44.929Z,16.80
2018-06-10T03:04:50.789Z,16.80
2018-06-10T03:05:56.221Z,16.80
2018-06-10T03:07:01.645Z,16.80
2018-06-10T03:08:07.110Z,16.90
2018-06-10T03:09:12.518Z,16.90
2018-06-10T03:10:18.461Z,16.90
2018-06-10T03:11:23.881Z,16.90
2018-06-10T03:12:29.294Z,17.00
2018-06-10T03:13:34.715Z,17.00
2018-06-10T03:14:40.122Z,17.00
2018-06-10T03:15:45.531Z,16.90
2018-06-10T03:16:50.957Z,16.90
2018-06-10T03:17:56.377Z,16.80
2018-06-10T03:19:01.801Z,16.80
2018-06-10T03:20:07.298Z,16.80
2018-06-10T03:21:12.723Z,16.80
2018-06-10T03:22:18.195Z,16.80
2018-06-10T03:23:23.605Z,16.90
2018-06-10T03:24:29.044Z,16.90
2018-06-10T03:25:34.515Z,16.90
2018-06-10T03:26:40.093Z,16.90
2018-06-10T03:27:45.398Z,16.80
2018-06-10T03:28:50.806Z,16.90
2018-06-10T03:29:56.209Z,16.90
2018-06-10T03:31:01.636Z,16.80
2018-06-10T03:32:07.138Z,16.90
2018-06-10T03:33:12.565Z,17.00
2018-06-10T03:34:18.138Z,17.00
2018-06-10T03:35:23.569Z,17.00
2018-06-10T03:36:28.987Z,16.90
2018-06-10T03:37:34.458Z,16.90
2018-06-10T03:38:40.016Z,17.00
2018-06-10T03:39:45.452Z,17.00
2018-06-10T03:40:50.864Z,17.00
2018-06-10T03:41:56.277Z,17.00
2018-06-10T03:43:01.857Z,16.90
2018-06-10T03:44:07.317Z,16.90
2018-06-10T03:45:12.759Z,16.90
2018-06-10T03:46:18.217Z,16.80
2018-06-10T03:47:23.749Z,16.90
2018-06-10T03:48:29.356Z,16.90
2018-06-10T03:49:34.821Z,16.90
2018-06-10T03:50:40.257Z,16.90
2018-06-10T03:51:45.673Z,17.00
2018-06-10T03:52:51.092Z,17.00
2018-06-10T03:53:56.536Z,17.00
2018-06-10T03:55:01.961Z,17.00
2018-06-10T03:56:07.681Z,17.00
2018-06-10T03:57:13.126Z,16.90
2018-06-10T03:58:18.569Z,16.90
2018-06-10T03:59:24.040Z,17.00
2018-06-10T04:00:29.582Z,17.00
2018-06-10T04:01:35.006Z,17.00
2018-06-10T04:02:40.477Z,17.00
2018-06-10T04:03:45.922Z,17.00
2018-06-10T04:04:51.381Z,17.00
2018-06-10T04:05:56.844Z,17.00
2018-06-10T04:07:02.254Z,16.90
2018-06-10T04:08:07.713Z,17.00
2018-06-10T04:09:13.109Z,16.90
2018-06-10T04:10:18.544Z,16.90
2018-06-10T04:11:23.957Z,16.80
2018-06-10T04:12:29.486Z,16.80
2018-06-10T04:13:34.940Z,16.80
2018-06-10T04:14:40.454Z,16.80
2018-06-10T04:15:45.932Z,16.70
2018-06-10T04:16:51.361Z,16.80
2018-06-10T04:17:56.783Z,16.80
2018-06-10T04:19:02.229Z,16.80
2018-06-10T04:20:07.705Z,16.80
2018-06-10T04:21:13.162Z,16.80
2018-06-10T04:22:18.565Z,16.80
2018-06-10T04:23:23.989Z,16.80
2018-06-10T04:24:29.445Z,16.80
2018-06-10T04:25:36.247Z,16.80
2018-06-10T04:26:41.681Z,16.80
2018-06-10T04:27:47.105Z,16.80
2018-06-10T04:28:53.090Z,16.80
2018-06-10T04:29:58.561Z,16.80
2018-06-10T04:31:03.979Z,16.80
2018-06-10T04:32:09.428Z,16.80
2018-06-10T04:33:14.868Z,16.80
2018-06-10T04:34:20.321Z,16.80
2018-06-10T04:35:25.749Z,16.80
2018-06-10T04:36:31.205Z,16.80
2018-06-10T04:37:36.752Z,16.80
2018-06-10T04:39:55.002Z,16.80
2018-06-10T04:41:00.424Z,16.80
2018-06-10T04:42:05.938Z,16.80
2018-06-10T04:43:11.369Z,16.80
2018-06-10T04:44:16.810Z,16.90
2018-06-10T04:45:22.347Z,16.80
2018-06-10T04:46:27.773Z,16.80
2018-06-10T04:47:33.213Z,16.80
2018-06-10T04:48:38.634Z,16.80
2018-06-10T04:49:44.077Z,16.80
2018-06-10T04:50:49.948Z,16.90
2018-06-10T04:51:55.353Z,16.90
2018-06-10T04:53:00.780Z,16.90
2018-06-10T04:54:06.250Z,17.00
2018-06-10T04:55:11.662Z,16.90
2018-06-10T04:56:17.229Z,17.00
2018-06-10T04:57:22.653Z,17.00
2018-06-10T04:58:28.502Z,16.90
2018-06-10T04:59:33.904Z,17.00
2018-06-10T05:00:39.323Z,17.00
2018-06-10T05:01:44.802Z,17.00
2018-06-10T05:02:50.237Z,17.00
2018-06-10T05:03:55.704Z,17.10
2018-06-10T05:05:01.173Z,17.10
2018-06-10T05:06:06.708Z,17.10
2018-06-10T05:07:12.118Z,17.00
2018-06-10T05:08:17.550Z,17.10
2018-06-10T05:09:23.134Z,17.10
2018-06-10T05:10:28.577Z,17.00
2018-06-10T05:11:33.982Z,17.10
2018-06-10T05:12:39.416Z,17.00
2018-06-10T05:13:44.908Z,17.00
2018-06-10T05:14:50.378Z,17.00
2018-06-10T05:15:55.779Z,17.00
2018-06-10T05:17:01.299Z,17.00
2018-06-10T05:18:06.967Z,16.90
2018-06-10T05:19:12.385Z,16.90
2018-06-10T05:20:17.817Z,16.90
2018-06-10T05:21:23.255Z,16.90
2018-06-10T05:22:28.652Z,17.00
2018-06-10T05:23:34.256Z,17.00
2018-06-10T05:24:39.661Z,17.10
2018-06-10T05:25:45.230Z,17.10
2018-06-10T05:26:50.859Z,17.00
2018-06-10T05:27:56.305Z,17.00
2018-06-10T05:29:01.755Z,17.00
2018-06-10T05:30:07.226Z,16.90
2018-06-10T05:31:12.675Z,16.90
2018-06-10T05:32:18.117Z,17.00
2018-06-10T05:33:23.533Z,17.00
2018-06-10T05:34:28.947Z,17.00
2018-06-10T05:35:34.377Z,17.00
2018-06-10T05:36:39.805Z,16.90
2018-06-10T05:37:45.287Z,17.00
2018-06-10T05:38:50.713Z,17.10
2018-06-10T05:39:56.677Z,17.20
2018-06-10T05:41:02.227Z,17.20
2018-06-10T05:42:07.712Z,17.30
2018-06-10T05:43:13.157Z,17.20
2018-06-10T05:44:18.582Z,17.20
2018-06-10T05:45:24.278Z,17.20
2018-06-10T05:46:29.709Z,17.30
2018-06-10T05:47:35.138Z,17.30
2018-06-10T05:48:40.681Z,17.30
2018-06-10T05:49:46.174Z,17.30
2018-06-10T05:50:51.676Z,17.20
2018-06-10T05:51:57.089Z,17.20
2018-06-10T05:53:02.968Z,17.30
2018-06-10T05:54:08.396Z,17.20
2018-06-10T05:55:13.829Z,17.20
2018-06-10T05:56:19.304Z,17.20
2018-06-10T05:57:24.838Z,17.20
2018-06-10T05:58:30.377Z,17.30
2018-06-10T05:59:35.797Z,17.20
2018-06-10T06:00:41.237Z,17.20
2018-06-10T06:01:46.721Z,17.20
2018-06-10T06:02:52.129Z,17.30
2018-06-10T06:03:58.285Z,17.30
2018-06-10T06:05:03.760Z,17.30
2018-06-10T06:07:14.334Z,17.20
2018-06-10T06:08:19.890Z,17.30
2018-06-10T06:09:25.485Z,17.30
2018-06-10T06:10:30.902Z,17.30
2018-06-10T06:11:36.389Z,17.40
2018-06-10T06:12:41.810Z,17.40
2018-06-10T06:13:47.314Z,17.50
2018-06-10T06:14:52.885Z,17.50
2018-06-10T06:15:58.336Z,17.50
2018-06-10T06:17:03.801Z,17.60
2018-06-10T06:19:14.231Z,17.60
2018-06-10T06:20:19.690Z,17.80
2018-06-10T06:21:25.641Z,17.80
2018-06-10T06:22:31.104Z,17.90
2018-06-10T06:23:36.513Z,17.90
2018-06-10T06:24:41.954Z,18.00
2018-06-10T06:25:47.404Z,18.00
2018-06-10T06:26:53.008Z,17.90
2018-06-10T06:27:58.457Z,18.00
2018-06-10T06:29:03.946Z,18.10
2018-06-10T06:30:09.386Z,18.10
2018-06-10T06:31:15.201Z,18.10
2018-06-10T06:32:20.636Z,18.10
2018-06-10T06:33:26.585Z,18.10
2018-06-10T06:34:32.000Z,18.00
2018-06-10T06:35:37.529Z,18.00
2018-06-10T06:36:43.082Z,18.00
2018-06-10T06:37:48.658Z,18.00
2018-06-10T06:38:54.195Z,17.90
2018-06-10T06:39:59.740Z,18.00
2018-06-10T06:41:05.538Z,18.10
2018-06-10T06:42:10.970Z,18.10
2018-06-10T06:44:21.568Z,18.30
2018-06-10T06:45:26.995Z,18.40
2018-06-10T06:46:32.903Z,18.60
2018-06-10T06:47:38.397Z,18.70
2018-06-10T06:48:43.894Z,18.90
2018-06-10T06:49:49.354Z,19.00
2018-06-10T06:50:54.838Z,18.90
2018-06-10T06:52:00.389Z,19.00
2018-06-10T06:53:05.906Z,19.00
2018-06-10T06:54:11.366Z,19.10
2018-06-10T06:55:16.829Z,19.10
2018-06-10T06:56:22.361Z,19.10
2018-06-10T06:57:27.854Z,19.10
2018-06-10T06:58:33.333Z,19.00
2018-06-10T06:59:38.736Z,19.00
2018-06-10T07:00:44.160Z,19.00
2018-06-10T07:01:49.560Z,18.90
2018-06-10T07:02:55.201Z,18.90
2018-06-10T07:04:00.850Z,18.90
2018-06-10T07:05:06.274Z,18.90
2018-06-10T07:06:11.705Z,19.00
2018-06-10T07:07:17.466Z,19.10
2018-06-10T07:08:22.946Z,19.10
2018-06-10T07:10:33.686Z,19.20
2018-06-10T07:11:39.154Z,19.20
2018-06-10T07:12:44.579Z,19.10
2018-06-10T07:13:50.009Z,19.10
2018-06-10T07:14:55.552Z,19.10
2018-06-10T07:16:00.992Z,19.10
2018-06-10T07:17:06.425Z,19.10
2018-06-10T07:18:11.885Z,19.10
2018-06-10T07:19:17.425Z,19.20
2018-06-10T07:20:22.841Z,19.40
2018-06-10T07:21:28.499Z,19.50
2018-06-10T07:22:33.922Z,19.70
2018-06-10T07:23:39.333Z,19.90
2018-06-10T07:24:44.942Z,20.00
2018-06-10T07:25:50.390Z,20.00
2018-06-10T07:26:56.303Z,20.20
2018-06-10T07:28:01.756Z,20.20
2018-06-10T07:29:07.171Z,20.30
2018-06-10T07:30:12.649Z,20.30
2018-06-10T07:31:18.095Z,20.30
2018-06-10T07:33:28.608Z,20.40
2018-06-10T07:34:34.050Z,20.40
2018-06-10T07:35:39.547Z,20.40
2018-06-10T07:36:44.954Z,20.30
2018-06-10T07:37:50.424Z,20.20
2018-06-10T07:38:55.873Z,20.20
2018-06-10T07:40:01.486Z,20.20
2018-06-10T07:41:06.944Z,20.20
2018-06-10T07:42:12.372Z,20.10
2018-06-10T07:43:18.021Z,20.10
2018-06-10T07:44:23.532Z,20.10
2018-06-10T07:45:28.967Z,20.20
2018-06-10T07:46:34.387Z,20.10
2018-06-10T07:47:39.796Z,20.20
2018-06-10T07:48:45.733Z,20.30
2018-06-10T07:49:51.186Z,20.50
2018-06-10T07:52:01.640Z,20.60
2018-06-10T07:53:07.304Z,20.50
2018-06-10T07:54:12.771Z,20.50
2018-06-10T07:55:18.358Z,20.40
2018-06-10T07:56:23.784Z,20.40
2018-06-10T07:57:29.216Z,20.30
2018-06-10T07:58:34.669Z,20.40
2018-06-10T07:59:40.102Z,20.50
2018-06-10T08:00:45.784Z,20.60
2018-06-10T08:01:51.224Z,20.70
2018-06-10T08:04:01.748Z,20.70
2018-06-10T08:05:07.291Z,20.70
2018-06-10T08:06:12.722Z,20.60
2018-06-10T08:07:18.637Z,20.70
2018-06-10T08:08:24.154Z,20.80
2018-06-10T08:09:29.985Z,20.90
2018-06-10T08:10:35.413Z,20.80
2018-06-10T08:11:40.841Z,20.90
2018-06-10T08:12:46.502Z,20.80
2018-06-10T08:13:51.992Z,20.70
2018-06-10T08:14:57.521Z,20.70
2018-06-10T08:16:03.032Z,20.70
2018-06-10T08:17:08.606Z,20.70
2018-06-10T08:18:14.029Z,20.60
2018-06-10T08:19:19.470Z,20.60
2018-06-10T08:20:24.926Z,20.70
2018-06-10T08:21:30.339Z,20.70
2018-06-10T08:22:35.778Z,20.60
2018-06-10T08:23:41.185Z,20.50
2018-06-10T08:24:47.062Z,20.40
2018-06-10T08:25:52.489Z,20.30
2018-06-10T08:26:57.926Z,20.30
2018-06-10T08:28:03.650Z,20.40
2018-06-10T08:29:09.085Z,20.50
2018-06-10T08:30:14.547Z,20.60
2018-06-10T08:31:20.205Z,20.60
2018-06-10T08:32:25.630Z,20.80
2018-06-10T08:33:31.090Z,20.90
2018-06-10T08:34:36.492Z,20.90
2018-06-10T08:35:41.956Z,21.10
2018-06-10T08:36:47.519Z,21.30
2018-06-10T08:37:52.933Z,21.40
2018-06-10T08:38:58.432Z,21.50
2018-06-10T08:40:04.041Z,21.60
2018-06-10T08:41:09.442Z,21.70
2018-06-10T08:42:15.005Z,21.80
2018-06-10T08:43:20.550Z,21.90
2018-06-10T08:44:26.002Z,22.00
2018-06-10T08:45:31.417Z,21.90
2018-06-10T08:46:36.830Z,22.00
2018-06-10T08:47:42.289Z,22.00
2018-06-10T08:48:47.825Z,22.00
2018-06-10T08:49:53.266Z,21.90
2018-06-10T08:50:58.686Z,21.80
2018-06-10T08:52:04.153Z,21.90
2018-06-10T08:53:09.590Z,21.90
2018-06-10T08:54:15.050Z,21.80
2018-06-10T08:55:20.497Z,21.70
2018-06-10T08:56:25.929Z,21.80
2018-06-10T08:57:31.359Z,21.90
2018-06-10T08:58:36.826Z,21.90
2018-06-10T08:59:42.310Z,22.00
2018-06-10T09:00:47.753Z,22.10
2018-06-10T09:01:53.202Z,22.20
2018-06-10T09:02:58.706Z,22.30
2018-06-10T09:04:04.370Z,22.30
2018-06-10T09:05:09.872Z,22.10
2018-06-10T09:07:20.477Z,22.10
2018-06-10T09:08:25.944Z,22.00
2018-06-10T09:09:31.373Z,21.90
2018-06-10T09:10:36.817Z,22.00
2018-06-10T09:11:42.702Z,22.00
2018-06-10T09:12:48.156Z,22.00
2018-06-10T09:13:53.572Z,21.80
2018-06-10T09:14:59.023Z,21.90
2018-06-10T09:16:04.463Z,22.00
2018-06-10T09:17:10.418Z,22.00
2018-06-10T09:18:15.991Z,22.00
2018-06-10T09:19:21.437Z,21.90
2018-06-10T09:20:26.914Z,22.00
2018-06-10T09:21:32.377Z,22.00
2018-06-10T09:22:37.849Z,21.90
2018-06-10T09:23:43.809Z,22.00
2018-06-10T09:24:49.254Z,22.00
2018-06-10T09:25:54.691Z,21.90
2018-06-10T09:27:00.221Z,21.90
2018-06-10T09:28:05.837Z,21.80
2018-06-10T09:29:11.283Z,21.80
2018-06-10T09:30:16.742Z,21.80
2018-06-10T09:31:22.190Z,21.90
2018-06-10T09:32:27.585Z,22.00
2018-06-10T09:33:33.074Z,22.00
2018-06-10T09:34:38.486Z,22.10
2018-06-10T09:35:43.937Z,22.10
2018-06-10T09:36:50.346Z,22.30
2018-06-10T09:37:55.762Z,22.40
2018-06-10T09:40:06.283Z,22.90
2018-06-10T09:41:11.724Z,23.20
2018-06-10T09:42:17.180Z,23.30
2018-06-10T09:43:22.650Z,23.40
2018-06-10T09:44:28.065Z,23.40
2018-06-10T09:45:33.509Z,23.50
2018-06-10T09:46:38.973Z,23.30
2018-06-10T09:47:44.468Z,23.30
2018-06-10T09:48:50.314Z,23.20
2018-06-10T09:49:55.869Z,23.10
2018-06-10T09:51:01.254Z,23.10
2018-06-10T09:52:06.726Z,23.10
2018-06-10T09:53:12.467Z,23.10
2018-06-10T09:54:18.181Z,23.00
2018-06-10T09:55:23.715Z,23.00
2018-06-10T09:56:29.243Z,23.00
2018-06-10T09:57:34.641Z,23.10
2018-06-10T09:58:40.163Z,23.30
2018-06-10T09:59:45.761Z,23.50
2018-06-10T10:00:51.212Z,23.60
2018-06-10T10:01:56.638Z,23.80
2018-06-10T10:03:02.062Z,23.70
2018-06-10T10:04:07.494Z,23.60
2018-06-10T10:05:13.053Z,23.30
2018-06-10T10:06:18.554Z,23.10
2018-06-10T10:07:23.979Z,22.90
2018-06-10T10:08:29.420Z,22.90
2018-06-10T10:09:34.835Z,22.90
2018-06-10T10:10:40.305Z,22.90
2018-06-10T10:11:45.781Z,22.80
2018-06-10T10:12:51.196Z,22.80
2018-06-10T10:13:56.597Z,22.80
2018-06-10T10:15:02.098Z,22.80
2018-06-10T10:16:07.651Z,22.80
2018-06-10T10:17:13.053Z,22.80
2018-06-10T10:18:18.529Z,22.80
2018-06-10T10:19:23.947Z,22.90
2018-06-10T10:20:29.365Z,23.00
2018-06-10T10:21:34.842Z,22.90
2018-06-10T10:22:40.266Z,22.80
2018-06-10T10:23:45.669Z,22.70
2018-06-10T10:24:51.705Z,22.60
2018-06-10T10:25:57.109Z,22.70
2018-06-10T10:27:02.605Z,22.80
2018-06-10T10:28:08.026Z,22.90
2018-06-10T10:29:13.463Z,23.00
2018-06-10T10:30:18.909Z,23.00
2018-06-10T10:31:24.314Z,23.10
2018-06-10T10:32:29.880Z,23.30
2018-06-10T10:33:35.456Z,23.40
2018-06-10T10:34:40.846Z,23.50
2018-06-10T10:35:46.449Z,23.60
2018-06-10T10:36:51.852Z,23.70
2018-06-10T10:37:58.245Z,23.70
2018-06-10T10:39:03.922Z,23.70
2018-06-10T10:40:09.365Z,23.70
2018-06-10T10:41:14.885Z,23.60
2018-06-10T10:42:20.341Z,23.40
2018-06-10T10:43:25.785Z,23.20
2018-06-10T10:44:31.656Z,23.10
2018-06-10T10:45:37.069Z,23.10
2018-06-10T10:46:42.586Z,23.20
2018-06-10T10:47:48.084Z,23.20
2018-06-10T10:48:53.506Z,23.40
2018-06-10T10:49:59.042Z,23.60
2018-06-10T10:51:04.573Z,23.70
2018-06-10T10:52:10.110Z,23.80
2018-06-10T10:53:16.105Z,23.90
2018-06-10T10:54:21.536Z,23.90
2018-06-10T10:56:31.985Z,24.10
2018-06-10T10:57:37.409Z,24.20
2018-06-10T10:58:42.956Z,24.30
2018-06-10T10:59:48.390Z,24.30
2018-06-10T11:00:53.877Z,24.30
2018-06-10T11:01:59.370Z,24.20
2018-06-10T11:03:04.997Z,24.20
2018-06-10T11:04:10.446Z,24.20
2018-06-10T11:05:15.909Z,24.10
2018-06-10T11:06:21.381Z,24.00
2018-06-10T11:07:26.821Z,24.20
2018-06-10T11:08:32.290Z,24.40
2018-06-10T11:09:37.765Z,24.50
2018-06-10T11:10:43.283Z,24.60
2018-06-10T11:11:48.774Z,24.70
2018-06-10T11:12:54.197Z,24.60
2018-06-10T11:13:59.629Z,24.60
2018-06-10T11:15:05.157Z,24.50
2018-06-10T11:16:10.614Z,24.40
2018-06-10T11:17:16.165Z,24.40
2018-06-10T11:18:21.632Z,24.40
2018-06-10T11:19:27.112Z,24.30
2018-06-10T11:20:32.768Z,24.40
2018-06-10T11:21:38.193Z,24.60
2018-06-10T11:22:43.639Z,24.70
2018-06-10T11:23:49.097Z,24.80
2018-06-10T11:24:54.522Z,24.80
2018-06-10T11:25:59.994Z,24.80
2018-06-10T11:27:05.438Z,24.80
2018-06-10T11:28:10.889Z,24.70
2018-06-10T11:29:16.392Z,24.80
2018-06-10T11:30:23.101Z,24.70
2018-06-10T11:31:28.557Z,24.80
2018-06-10T11:32:34.015Z,24.90
2018-06-10T11:33:39.434Z,25.00
2018-06-10T11:34:44.872Z,25.00
2018-06-10T11:35:50.421Z,24.90
2018-06-10T11:36:55.903Z,24.80
2018-06-10T11:38:01.362Z,24.80
2018-06-10T11:39:09.376Z,24.90
2018-06-10T11:40:14.808Z,24.90
2018-06-10T11:41:20.266Z,24.90
2018-06-10T11:43:30.980Z,25.20
2018-06-10T11:44:36.429Z,25.20
2018-06-10T11:45:41.840Z,25.20
2018-06-10T11:46:47.269Z,25.10
2018-06-10T11:47:52.668Z,25.00
2018-06-10T11:48:58.130Z,25.00
2018-06-10T11:50:04.726Z,24.90
2018-06-10T11:51:10.162Z,24.70
2018-06-10T11:52:15.630Z,24.70
2018-06-10T11:53:21.101Z,24.60
2018-06-10T11:54:26.533Z,24.60
2018-06-10T11:55:32.465Z,24.60
2018-06-10T11:56:37.897Z,24.70
2018-06-10T11:57:43.313Z,24.80
2018-06-10T11:58:48.757Z,24.80
2018-06-10T11:59:54.209Z,24.80
2018-06-10T12:00:59.830Z,24.80
2018-06-10T12:02:05.637Z,24.80
2018-06-10T12:03:11.122Z,24.90
2018-06-10T12:04:16.611Z,25.00
2018-06-10T12:05:22.038Z,25.10
2018-06-10T12:06:27.487Z,25.20
2018-06-10T12:07:33.007Z,25.50
2018-06-10T12:08:38.438Z,25.60
2018-06-10T12:09:43.937Z,25.80
2018-06-10T12:10:49.615Z,25.90
2018-06-10T12:13:00.033Z,25.80
2018-06-10T12:14:05.508Z,25.50
2018-06-10T12:15:11.417Z,25.30
2018-06-10T12:16:16.888Z,25.10
2018-06-10T12:18:27.402Z,25.00
2018-06-10T12:19:32.841Z,25.00
2018-06-10T12:20:38.281Z,25.00
2018-06-10T12:21:43.681Z,25.10
2018-06-10T12:23:54.457Z,25.20
2018-06-10T12:26:04.989Z,25.30
2018-06-10T12:27:10.410Z,25.40
2018-06-10T12:28:15.846Z,25.40
2018-06-10T12:29:21.377Z,25.50
2018-06-10T12:30:26.893Z,25.60
2018-06-10T12:31:32.700Z,25.60
2018-06-10T12:32:38.116Z,25.60
2018-06-10T12:33:43.522Z,25.60
2018-06-10T12:35:54.081Z,25.60
2018-06-10T12:36:59.548Z,25.80
2018-06-10T12:38:04.975Z,25.80
2018-06-10T12:39:10.385Z,25.80
2018-06-10T12:40:16.321Z,25.80
2018-06-10T12:41:21.756Z,25.90
2018-06-10T12:42:27.128Z,26.00
2018-06-10T12:43:32.561Z,25.90
2018-06-10T12:44:37.968Z,26.10
2018-06-10T12:45:43.405Z,26.30
2018-06-10T12:46:48.833Z,26.40
2018-06-10T12:47:54.318Z,26.30
2018-06-10T12:48:59.865Z,26.30
2018-06-10T12:50:05.354Z,26.20
2018-06-10T12:51:10.765Z,25.70
2018-06-10T12:52:16.233Z,25.70
2018-06-10T12:53:21.645Z,25.70
2018-06-10T12:54:27.233Z,25.60
2018-06-10T12:55:32.660Z,25.50
2018-06-10T12:56:38.117Z,25.50
2018-06-10T12:57:43.516Z,25.50
2018-06-10T12:58:48.936Z,25.50
2018-06-10T12:59:54.385Z,25.30
2018-06-10T13:00:59.815Z,25.30
2018-06-10T13:02:05.493Z,25.30
2018-06-10T13:03:11.511Z,25.30
2018-06-10T13:04:17.054Z,25.30
2018-06-10T13:05:22.475Z,25.40
2018-06-10T13:06:28.253Z,25.60
2018-06-10T13:07:33.808Z,25.80
2018-06-10T13:08:39.273Z,26.10
2018-06-10T13:09:44.771Z,26.20
2018-06-10T13:10:50.186Z,26.30
2018-06-10T13:11:55.589Z,26.30
2018-06-10T13:13:01.142Z,26.40
2018-06-10T13:14:06.657Z,26.40
2018-06-10T13:15:12.484Z,26.20
2018-06-10T13:16:20.981Z,26.20
2018-06-10T13:17:26.575Z,26.10
2018-06-10T13:18:32.142Z,26.00
2018-06-10T13:19:37.541Z,25.80
2018-06-10T13:20:42.974Z,25.70
2018-06-10T13:21:48.415Z,25.70
2018-06-10T13:22:53.827Z,25.60
2018-06-10T13:23:59.245Z,25.40
2018-06-10T13:25:05.026Z,25.30
2018-06-10T13:26:10.558Z,25.10
2018-06-10T13:27:16.058Z,24.80
2018-06-10T13:28:21.466Z,24.60
2018-06-10T13:29:26.881Z,24.60
2018-06-10T13:30:32.312Z,24.60
2018-06-10T13:31:37.841Z,24.80
2018-06-10T13:32:43.270Z,25.00
2018-06-10T13:33:48.738Z,25.10
2018-06-10T13:34:54.218Z,25.20
2018-06-10T13:35:59.638Z,25.20
2018-06-10T13:37:05.190Z,25.30
2018-06-10T13:38:10.596Z,25.40
2018-06-10T13:39:16.040Z,25.40
2018-06-10T13:40:21.473Z,25.30
2018-06-10T13:41:26.931Z,25.30
2018-06-10T13:42:32.443Z,25.30
2018-06-10T13:43:37.892Z,25.40
2018-06-10T13:44:43.362Z,25.50
2018-06-10T13:45:48.778Z,25.50
2018-06-10T13:46:54.223Z,25.70
2018-06-10T13:47:59.750Z,25.80
2018-06-10T13:49:05.257Z,26.00
2018-06-10T13:50:10.657Z,26.20
2018-06-10T13:51:16.146Z,26.20
2018-06-10T13:52:22.222Z,26.30
2018-06-10T13:53:28.001Z,26.30
2018-06-10T13:54:33.416Z,26.40
2018-06-10T13:55:39.047Z,26.50
2018-06-10T13:56:44.591Z,26.60
2018-06-10T13:57:50.060Z,26.60
2018-06-10T13:58:55.545Z,26.70
2018-06-10T14:00:01.042Z,26.70
2018-06-10T14:01:06.457Z,26.80
2018-06-10T14:02:11.884Z,26.60
2018-06-10T14:03:17.436Z,26.50
2018-06-10T14:04:22.919Z,26.30
2018-06-10T14:05:28.321Z,26.20
2018-06-10T14:06:33.731Z,26.10
2018-06-10T14:07:39.138Z,26.00
2018-06-10T14:08:44.573Z,26.10
2018-06-10T14:09:50.450Z,25.90
2018-06-10T14:10:55.901Z,25.80
2018-06-10T14:12:01.322Z,25.60
2018-06-10T14:13:06.893Z,25.40
2018-06-10T14:14:12.281Z,25.30
2018-06-10T14:15:17.796Z,25.10
2018-06-10T14:16:23.238Z,25.10
2018-06-10T14:17:28.674Z,25.20
2018-06-10T14:18:34.085Z,25.20
2018-06-10T14:19:39.517Z,25.20
2018-06-10T14:20:45.157Z,25.10
2018-06-10T14:21:50.562Z,25.00
2018-06-10T14:22:55.985Z,25.00
2018-06-10T14:24:01.437Z,25.00
2018-06-10T14:25:07.069Z,25.00